Allenville, Missouri
Current Conditions -  °F | °C
As of 2:53 AM on Thursday 18 Dec 2014 (Local Time) from KCGI Reporting Station
Haze Haze  
Wind Chill: 33°   Ceiling: 6500
Heat Index: 33°   Visibility: 5mi
Dew Point: 32°   Wind: 3mph
Humidity: 96%   Direction: 130°SE
Pressure: 30.26"   Gusts: NA
Location:  37.1651°N, 89.623°W
Report Text: KCGI 180853Z AUTO 13003KT 5SM UP BR OVC065 01/00 A3026 RMK AO2 UPB33 SLP249 P0000 60012 T00060000 58013 TSNO
Loading
Personal Weather Stations






























Interactive Weather Map New forecast layout! Learn more

10-Day Weather Forecast

Advertisements
Track Severe Weather on mobile